Airports

 

 

Airport Name Latest METAR Visual Conditions
Anchorage (ANC) PANC 220753Z 16004KT 10SM CLR M03/M06 A3047 RMK AO2 SLP320 T10281056 VFR
Fairbanks (FAI) PAFA 220753Z 06007KT 9SM -SN FEW010 OVC021 M03/M07 A3068 RMK AO2 SLP399 P0000 T10331067 MVFR
Guam International Airport (GUM) PGUM 220754Z 19003KT 10SM FEW055 26/22 A2986 RMK AO2 SLP106 T02560222 VFR
Honolulu (HNL) PHNL 220753Z 34004KT 10SM FEW025 SCT040 BKN060 24/22 A2994 RMK AO2 RAE26 SLP140 P0001 T02440222 $ VFR
Hilo (ITO) PHTO 220753Z 00000KT 10SM CLR 22/19 A2997 RMK AO2 SLP148 T02220189 VFR
Juneau (JNU) PAJN 220753Z 07005KT 10SM CLR 00/M13 A3055 RMK AO2 SLP346 T00001133 VFR
Kahului (OGG) PHOG 220754Z 21005KT 10SM CLR 24/18 A2994 RMK AO2 SLP145 T02390183 VFR